sensor_id;sensor_type;location;lat;lon;timestamp;P1;durP1;ratioP1;P2;durP2;ratioP2
51836;SDS011;38941;53.254;6.600;2023-12-20T00:00:53;12.77;;;1.25;;
51836;SDS011;38941;53.254;6.600;2023-12-20T00:02:54;8.02;;;1.40;;
51836;SDS011;38941;53.254;6.600;2023-12-20T00:04:55;10.00;;;1.58;;
51836;SDS011;38941;53.254;6.600;2023-12-20T00:06:56;10.68;;;2.30;;
51836;SDS011;38941;53.254;6.600;2023-12-20T00:08:57;8.30;;;1.00;;
51836;SDS011;38941;53.254;6.600;2023-12-20T00:10:59;11.85;;;1.05;;
51836;SDS011;38941;53.254;6.600;2023-12-20T00:13:01;13.68;;;3.30;;
51836;SDS011;38941;53.254;6.600;2023-12-20T00:15:03;9.90;;;1.98;;
51836;SDS011;38941;53.254;6.600;2023-12-20T00:17:04;8.90;;;1.20;;
51836;SDS011;38941;53.254;6.600;2023-12-20T00:19:05;7.30;;;1.08;;
51836;SDS011;38941;53.254;6.600;2023-12-20T00:21:06;12.65;;;1.13;;
51836;SDS011;38941;53.254;6.600;2023-12-20T00:23:07;13.85;;;1.75;;
51836;SDS011;38941;53.254;6.600;2023-12-20T00:25:08;10.23;;;1.35;;
51836;SDS011;38941;53.254;6.600;2023-12-20T00:27:09;8.50;;;1.17;;
51836;SDS011;38941;53.254;6.600;2023-12-20T00:29:10;10.57;;;2.25;;
51836;SDS011;38941;53.254;6.600;2023-12-20T00:31:11;13.60;;;1.70;;
51836;SDS011;38941;53.254;6.600;2023-12-20T00:33:13;9.73;;;1.92;;
51836;SDS011;38941;53.254;6.600;2023-12-20T00:35:14;14.85;;;2.33;;
51836;SDS011;38941;53.254;6.600;2023-12-20T00:37:15;20.02;;;1.95;;
51836;SDS011;38941;53.254;6.600;2023-12-20T00:39:16;7.70;;;1.45;;
51836;SDS011;38941;53.254;6.600;2023-12-20T00:41:18;18.58;;;1.48;;
51836;SDS011;38941;53.254;6.600;2023-12-20T00:43:20;12.57;;;2.22;;
51836;SDS011;38941;53.254;6.600;2023-12-20T00:45:21;16.13;;;2.53;;
51836;SDS011;38941;53.254;6.600;2023-12-20T00:47:22;7.55;;;1.40;;
51836;SDS011;38941;53.254;6.600;2023-12-20T00:49:23;14.70;;;1.40;;
51836;SDS011;38941;53.254;6.600;2023-12-20T00:51:25;13.23;;;2.65;;
51836;SDS011;38941;53.254;6.600;2023-12-20T00:53:26;13.07;;;1.70;;
51836;SDS011;38941;53.254;6.600;2023-12-20T00:55:28;6.70;;;1.73;;
51836;SDS011;38941;53.254;6.600;2023-12-20T00:57:29;8.77;;;1.65;;
51836;SDS011;38941;53.254;6.600;2023-12-20T00:59:31;7.20;;;1.15;;
51836;SDS011;38941;53.254;6.600;2023-12-20T01:01:32;11.98;;;1.20;;
51836;SDS011;38941;53.254;6.600;2023-12-20T01:03:33;7.65;;;1.10;;
51836;SDS011;38941;53.254;6.600;2023-12-20T01:05:34;7.55;;;1.23;;
51836;SDS011;38941;53.254;6.600;2023-12-20T01:07:36;10.23;;;2.28;;
51836;SDS011;38941;53.254;6.600;2023-12-20T01:09:37;13.63;;;1.35;;
51836;SDS011;38941;53.254;6.600;2023-12-20T01:11:39;8.07;;;1.17;;
51836;SDS011;38941;53.254;6.600;2023-12-20T01:13:40;9.63;;;1.17;;
51836;SDS011;38941;53.254;6.600;2023-12-20T01:15:41;7.13;;;1.20;;
51836;SDS011;38941;53.254;6.600;2023-12-20T01:17:42;8.40;;;1.10;;
51836;SDS011;38941;53.254;6.600;2023-12-20T01:19:44;9.18;;;2.03;;
51836;SDS011;38941;53.254;6.600;2023-12-20T01:21:46;13.00;;;1.88;;
51836;SDS011;38941;53.254;6.600;2023-12-20T01:23:47;8.27;;;1.88;;
51836;SDS011;38941;53.254;6.600;2023-12-20T01:25:48;10.25;;;1.90;;
51836;SDS011;38941;53.254;6.600;2023-12-20T01:27:50;17.88;;;1.42;;
51836;SDS011;38941;53.254;6.600;2023-12-20T01:29:51;7.88;;;1.55;;
51836;SDS011;38941;53.254;6.600;2023-12-20T01:31:52;14.55;;;1.33;;
51836;SDS011;38941;53.254;6.600;2023-12-20T01:33:53;10.98;;;1.60;;
51836;SDS011;38941;53.254;6.600;2023-12-20T01:35:55;12.75;;;2.00;;
51836;SDS011;38941;53.254;6.600;2023-12-20T01:37:56;8.73;;;1.17;;
51836;SDS011;38941;53.254;6.600;2023-12-20T01:39:57;9.23;;;1.63;;
51836;SDS011;38941;53.254;6.600;2023-12-20T01:41:58;10.98;;;1.17;;
51836;SDS011;38941;53.254;6.600;2023-12-20T01:43:59;12.80;;;1.95;;
51836;SDS011;38941;53.254;6.600;2023-12-20T01:46:00;10.02;;;2.22;;
51836;SDS011;38941;53.254;6.600;2023-12-20T01:48:03;14.32;;;2.67;;
51836;SDS011;38941;53.254;6.600;2023-12-20T01:50:05;14.10;;;1.52;;
51836;SDS011;38941;53.254;6.600;2023-12-20T01:52:08;8.98;;;1.90;;
51836;SDS011;38941;53.254;6.600;2023-12-20T01:54:09;14.32;;;1.85;;
51836;SDS011;38941;53.254;6.600;2023-12-20T01:56:10;9.20;;;2.70;;
51836;SDS011;38941;53.254;6.600;2023-12-20T01:58:12;13.55;;;1.67;;
51836;SDS011;38941;53.254;6.600;2023-12-20T02:00:14;8.00;;;2.75;;
51836;SDS011;38941;53.254;6.600;2023-12-20T02:02:16;14.90;;;1.35;;
51836;SDS011;38941;53.254;6.600;2023-12-20T02:04:17;13.13;;;1.65;;
51836;SDS011;38941;53.254;6.600;2023-12-20T02:06:20;12.75;;;2.45;;
51836;SDS011;38941;53.254;6.600;2023-12-20T02:08:23;10.20;;;1.90;;
51836;SDS011;38941;53.254;6.600;2023-12-20T02:10:24;11.98;;;1.65;;
51836;SDS011;38941;53.254;6.600;2023-12-20T02:12:26;11.30;;;1.48;;
51836;SDS011;38941;53.254;6.600;2023-12-20T02:14:27;8.38;;;0.98;;
51836;SDS011;38941;53.254;6.600;2023-12-20T02:16:28;14.48;;;1.10;;
51836;SDS011;38941;53.254;6.600;2023-12-20T02:18:29;8.82;;;1.10;;
51836;SDS011;38941;53.254;6.600;2023-12-20T02:20:30;10.07;;;1.45;;
51836;SDS011;38941;53.254;6.600;2023-12-20T02:22:32;9.25;;;1.50;;
51836;SDS011;38941;53.254;6.600;2023-12-20T02:24:33;12.38;;;1.88;;
51836;SDS011;38941;53.254;6.600;2023-12-20T02:26:35;8.73;;;1.70;;
51836;SDS011;38941;53.254;6.600;2023-12-20T02:28:36;8.90;;;1.50;;
51836;SDS011;38941;53.254;6.600;2023-12-20T02:30:37;9.68;;;2.13;;
51836;SDS011;38941;53.254;6.600;2023-12-20T02:32:40;11.60;;;1.75;;
51836;SDS011;38941;53.254;6.600;2023-12-20T02:34:41;11.68;;;1.83;;
51836;SDS011;38941;53.254;6.600;2023-12-20T02:36:42;7.68;;;1.77;;
51836;SDS011;38941;53.254;6.600;2023-12-20T02:38:43;17.17;;;2.28;;
51836;SDS011;38941;53.254;6.600;2023-12-20T02:40:44;8.98;;;1.60;;
51836;SDS011;38941;53.254;6.600;2023-12-20T02:42:46;9.30;;;1.55;;
51836;SDS011;38941;53.254;6.600;2023-12-20T02:44:47;12.70;;;1.92;;
51836;SDS011;38941;53.254;6.600;2023-12-20T02:46:48;17.63;;;3.03;;
51836;SDS011;38941;53.254;6.600;2023-12-20T02:48:49;16.52;;;2.33;;
51836;SDS011;38941;53.254;6.600;2023-12-20T02:50:51;7.72;;;2.55;;
51836;SDS011;38941;53.254;6.600;2023-12-20T02:52:52;18.02;;;1.88;;
51836;SDS011;38941;53.254;6.600;2023-12-20T02:54:53;16.25;;;1.80;;
51836;SDS011;38941;53.254;6.600;2023-12-20T02:56:54;13.30;;;1.80;;
51836;SDS011;38941;53.254;6.600;2023-12-20T02:58:55;14.25;;;2.20;;
51836;SDS011;38941;53.254;6.600;2023-12-20T03:00:56;15.82;;;2.22;;
51836;SDS011;38941;53.254;6.600;2023-12-20T03:02:57;22.08;;;2.95;;
51836;SDS011;38941;53.254;6.600;2023-12-20T03:04:59;8.27;;;1.65;;
51836;SDS011;38941;53.254;6.600;2023-12-20T03:07:00;13.93;;;2.22;;
51836;SDS011;38941;53.254;6.600;2023-12-20T03:09:02;15.13;;;2.63;;
51836;SDS011;38941;53.254;6.600;2023-12-20T03:11:04;12.70;;;2.10;;
51836;SDS011;38941;53.254;6.600;2023-12-20T03:13:05;10.93;;;1.58;;
51836;SDS011;38941;53.254;6.600;2023-12-20T03:15:06;17.50;;;1.98;;
51836;SDS011;38941;53.254;6.600;2023-12-20T03:17:08;20.38;;;3.05;;
51836;SDS011;38941;53.254;6.600;2023-12-20T03:19:09;13.27;;;1.92;;
51836;SDS011;38941;53.254;6.600;2023-12-20T03:21:10;13.70;;;2.60;;
51836;SDS011;38941;53.254;6.600;2023-12-20T03:23:11;23.80;;;4.72;;
51836;SDS011;38941;53.254;6.600;2023-12-20T03:25:12;30.27;;;2.80;;
51836;SDS011;38941;53.254;6.600;2023-12-20T03:27:13;22.52;;;2.05;;
51836;SDS011;38941;53.254;6.600;2023-12-20T03:29:14;11.32;;;2.42;;
51836;SDS011;38941;53.254;6.600;2023-12-20T03:31:15;12.25;;;1.70;;
51836;SDS011;38941;53.254;6.600;2023-12-20T03:33:16;9.48;;;2.08;;
51836;SDS011;38941;53.254;6.600;2023-12-20T03:35:19;7.10;;;1.20;;
51836;SDS011;38941;53.254;6.600;2023-12-20T03:37:21;10.88;;;1.45;;
51836;SDS011;38941;53.254;6.600;2023-12-20T03:39:23;11.65;;;1.30;;
51836;SDS011;38941;53.254;6.600;2023-12-20T03:41:24;15.65;;;1.67;;
51836;SDS011;38941;53.254;6.600;2023-12-20T03:43:26;12.02;;;1.55;;
51836;SDS011;38941;53.254;6.600;2023-12-20T03:45:27;22.02;;;2.03;;
51836;SDS011;38941;53.254;6.600;2023-12-20T03:47:28;17.33;;;2.22;;
51836;SDS011;38941;53.254;6.600;2023-12-20T03:49:29;19.52;;;3.15;;
51836;SDS011;38941;53.254;6.600;2023-12-20T03:51:30;16.40;;;1.90;;
51836;SDS011;38941;53.254;6.600;2023-12-20T03:53:31;19.02;;;4.72;;
51836;SDS011;38941;53.254;6.600;2023-12-20T03:55:32;14.95;;;2.35;;
51836;SDS011;38941;53.254;6.600;2023-12-20T03:57:34;11.50;;;2.30;;
51836;SDS011;38941;53.254;6.600;2023-12-20T03:59:36;9.32;;;2.20;;
51836;SDS011;38941;53.254;6.600;2023-12-20T04:01:37;18.05;;;1.83;;
51836;SDS011;38941;53.254;6.600;2023-12-20T04:03:38;14.43;;;3.25;;
51836;SDS011;38941;53.254;6.600;2023-12-20T04:05:40;13.93;;;2.10;;
51836;SDS011;38941;53.254;6.600;2023-12-20T04:07:41;19.58;;;2.88;;
51836;SDS011;38941;53.254;6.600;2023-12-20T04:09:44;15.48;;;2.65;;
51836;SDS011;38941;53.254;6.600;2023-12-20T04:11:47;13.98;;;3.38;;
51836;SDS011;38941;53.254;6.600;2023-12-20T04:13:48;17.58;;;2.70;;
51836;SDS011;38941;53.254;6.600;2023-12-20T04:15:49;26.00;;;2.88;;
51836;SDS011;38941;53.254;6.600;2023-12-20T04:17:52;14.80;;;3.03;;
51836;SDS011;38941;53.254;6.600;2023-12-20T04:19:53;14.48;;;3.00;;
51836;SDS011;38941;53.254;6.600;2023-12-20T04:21:54;16.08;;;3.13;;
51836;SDS011;38941;53.254;6.600;2023-12-20T04:23:56;20.83;;;3.38;;
51836;SDS011;38941;53.254;6.600;2023-12-20T04:25:58;26.52;;;2.65;;
51836;SDS011;38941;53.254;6.600;2023-12-20T04:27:59;20.30;;;2.67;;
51836;SDS011;38941;53.254;6.600;2023-12-20T04:30:00;18.15;;;3.08;;
51836;SDS011;38941;53.254;6.600;2023-12-20T04:32:01;24.30;;;3.08;;
51836;SDS011;38941;53.254;6.600;2023-12-20T04:34:02;20.70;;;2.97;;
51836;SDS011;38941;53.254;6.600;2023-12-20T04:36:04;14.32;;;2.40;;
51836;SDS011;38941;53.254;6.600;2023-12-20T04:38:05;20.05;;;2.70;;
51836;SDS011;38941;53.254;6.600;2023-12-20T04:40:07;19.70;;;2.50;;
51836;SDS011;38941;53.254;6.600;2023-12-20T04:42:09;14.95;;;2.60;;
51836;SDS011;38941;53.254;6.600;2023-12-20T04:44:11;23.83;;;2.53;;
51836;SDS011;38941;53.254;6.600;2023-12-20T04:46:12;18.92;;;2.90;;
51836;SDS011;38941;53.254;6.600;2023-12-20T04:48:14;19.63;;;3.88;;
51836;SDS011;38941;53.254;6.600;2023-12-20T04:50:15;23.70;;;3.45;;
51836;SDS011;38941;53.254;6.600;2023-12-20T04:52:17;18.25;;;2.92;;
51836;SDS011;38941;53.254;6.600;2023-12-20T04:54:18;22.90;;;2.80;;
51836;SDS011;38941;53.254;6.600;2023-12-20T04:56:19;14.48;;;2.50;;
51836;SDS011;38941;53.254;6.600;2023-12-20T04:58:21;21.83;;;2.40;;
51836;SDS011;38941;53.254;6.600;2023-12-20T05:00:24;18.65;;;2.72;;
51836;SDS011;38941;53.254;6.600;2023-12-20T05:02:25;17.20;;;2.83;;
51836;SDS011;38941;53.254;6.600;2023-12-20T05:04:26;13.68;;;2.50;;
51836;SDS011;38941;53.254;6.600;2023-12-20T05:06:27;19.08;;;3.03;;
51836;SDS011;38941;53.254;6.600;2023-12-20T05:08:28;18.70;;;2.58;;
51836;SDS011;38941;53.254;6.600;2023-12-20T05:10:30;23.92;;;2.83;;
51836;SDS011;38941;53.254;6.600;2023-12-20T05:12:31;13.90;;;2.42;;
51836;SDS011;38941;53.254;6.600;2023-12-20T05:14:32;10.30;;;2.00;;
51836;SDS011;38941;53.254;6.600;2023-12-20T05:16:33;19.95;;;4.03;;
51836;SDS011;38941;53.254;6.600;2023-12-20T05:18:34;23.95;;;2.50;;
51836;SDS011;38941;53.254;6.600;2023-12-20T05:20:35;15.10;;;2.05;;
51836;SDS011;38941;53.254;6.600;2023-12-20T05:22:37;18.88;;;3.13;;
51836;SDS011;38941;53.254;6.600;2023-12-20T05:24:38;18.67;;;3.17;;
51836;SDS011;38941;53.254;6.600;2023-12-20T05:26:39;21.88;;;3.00;;
51836;SDS011;38941;53.254;6.600;2023-12-20T05:28:40;15.73;;;1.98;;
51836;SDS011;38941;53.254;6.600;2023-12-20T05:30:41;21.77;;;3.00;;
51836;SDS011;38941;53.254;6.600;2023-12-20T05:32:43;22.13;;;3.60;;
51836;SDS011;38941;53.254;6.600;2023-12-20T05:34:44;21.10;;;1.90;;
51836;SDS011;38941;53.254;6.600;2023-12-20T05:36:44;20.08;;;2.78;;
51836;SDS011;38941;53.254;6.600;2023-12-20T05:38:45;21.50;;;2.70;;
51836;SDS011;38941;53.254;6.600;2023-12-20T05:40:46;24.20;;;2.88;;
51836;SDS011;38941;53.254;6.600;2023-12-20T05:42:46;26.13;;;4.00;;
51836;SDS011;38941;53.254;6.600;2023-12-20T05:44:48;22.77;;;3.55;;
51836;SDS011;38941;53.254;6.600;2023-12-20T05:46:49;16.52;;;2.08;;
51836;SDS011;38941;53.254;6.600;2023-12-20T05:48:49;11.70;;;2.13;;
51836;SDS011;38941;53.254;6.600;2023-12-20T05:50:51;21.27;;;2.08;;
51836;SDS011;38941;53.254;6.600;2023-12-20T05:52:52;27.13;;;3.03;;
51836;SDS011;38941;53.254;6.600;2023-12-20T05:54:53;21.10;;;2.20;;
51836;SDS011;38941;53.254;6.600;2023-12-20T05:56:55;14.35;;;2.88;;
51836;SDS011;38941;53.254;6.600;2023-12-20T05:58:56;13.73;;;2.80;;
51836;SDS011;38941;53.254;6.600;2023-12-20T06:00:58;19.13;;;2.97;;
51836;SDS011;38941;53.254;6.600;2023-12-20T06:02:59;15.18;;;2.42;;
51836;SDS011;38941;53.254;6.600;2023-12-20T06:05:01;26.77;;;3.40;;
51836;SDS011;38941;53.254;6.600;2023-12-20T06:07:01;26.20;;;2.42;;
51836;SDS011;38941;53.254;6.600;2023-12-20T06:09:04;15.20;;;2.33;;
51836;SDS011;38941;53.254;6.600;2023-12-20T06:11:05;15.43;;;2.13;;
51836;SDS011;38941;53.254;6.600;2023-12-20T06:13:05;13.32;;;2.47;;
51836;SDS011;38941;53.254;6.600;2023-12-20T06:15:06;17.00;;;2.53;;
51836;SDS011;38941;53.254;6.600;2023-12-20T06:17:08;22.30;;;2.83;;
51836;SDS011;38941;53.254;6.600;2023-12-20T06:19:08;15.77;;;2.35;;
51836;SDS011;38941;53.254;6.600;2023-12-20T06:21:09;27.65;;;3.58;;
51836;SDS011;38941;53.254;6.600;2023-12-20T06:23:12;22.73;;;3.88;;
51836;SDS011;38941;53.254;6.600;2023-12-20T06:25:13;20.83;;;3.13;;
51836;SDS011;38941;53.254;6.600;2023-12-20T06:27:14;18.67;;;3.20;;
51836;SDS011;38941;53.254;6.600;2023-12-20T06:29:15;23.58;;;4.78;;
51836;SDS011;38941;53.254;6.600;2023-12-20T06:31:15;32.20;;;3.65;;
51836;SDS011;38941;53.254;6.600;2023-12-20T06:33:17;19.92;;;2.60;;
51836;SDS011;38941;53.254;6.600;2023-12-20T06:35:19;12.68;;;2.75;;
51836;SDS011;38941;53.254;6.600;2023-12-20T06:37:19;19.10;;;3.28;;
51836;SDS011;38941;53.254;6.600;2023-12-20T06:39:20;14.23;;;1.77;;
51836;SDS011;38941;53.254;6.600;2023-12-20T06:41:22;24.35;;;2.85;;
51836;SDS011;38941;53.254;6.600;2023-12-20T06:43:24;11.35;;;2.40;;
51836;SDS011;38941;53.254;6.600;2023-12-20T06:45:26;18.60;;;3.00;;
51836;SDS011;38941;53.254;6.600;2023-12-20T06:47:26;12.32;;;2.17;;
51836;SDS011;38941;53.254;6.600;2023-12-20T06:49:27;17.50;;;2.25;;
51836;SDS011;38941;53.254;6.600;2023-12-20T06:51:28;14.40;;;2.67;;
51836;SDS011;38941;53.254;6.600;2023-12-20T06:53:28;18.63;;;3.42;;
51836;SDS011;38941;53.254;6.600;2023-12-20T06:55:29;14.57;;;2.83;;
51836;SDS011;38941;53.254;6.600;2023-12-20T06:57:30;12.18;;;2.47;;
51836;SDS011;38941;53.254;6.600;2023-12-20T06:59:31;16.30;;;3.75;;
51836;SDS011;38941;53.254;6.600;2023-12-20T07:01:32;19.52;;;2.85;;
51836;SDS011;38941;53.254;6.600;2023-12-20T07:03:32;13.98;;;2.60;;
51836;SDS011;38941;53.254;6.600;2023-12-20T07:05:34;16.15;;;2.53;;
51836;SDS011;38941;53.254;6.600;2023-12-20T07:07:36;13.32;;;2.47;;
51836;SDS011;38941;53.254;6.600;2023-12-20T07:09:37;19.10;;;3.08;;
51836;SDS011;38941;53.254;6.600;2023-12-20T07:11:39;15.98;;;2.33;;
51836;SDS011;38941;53.254;6.600;2023-12-20T07:13:41;18.90;;;3.70;;
51836;SDS011;38941;53.254;6.600;2023-12-20T07:15:42;23.85;;;3.20;;
51836;SDS011;38941;53.254;6.600;2023-12-20T07:17:43;11.38;;;2.15;;
51836;SDS011;38941;53.254;6.600;2023-12-20T07:19:43;16.98;;;2.63;;
51836;SDS011;38941;53.254;6.600;2023-12-20T07:21:44;22.80;;;3.83;;
51836;SDS011;38941;53.254;6.600;2023-12-20T07:23:45;18.65;;;3.40;;
51836;SDS011;38941;53.254;6.600;2023-12-20T07:25:46;16.90;;;2.03;;
51836;SDS011;38941;53.254;6.600;2023-12-20T07:27:47;25.90;;;3.50;;
51836;SDS011;38941;53.254;6.600;2023-12-20T07:29:49;23.60;;;3.00;;
51836;SDS011;38941;53.254;6.600;2023-12-20T07:31:49;17.52;;;2.63;;
51836;SDS011;38941;53.254;6.600;2023-12-20T07:33:52;24.08;;;4.72;;
51836;SDS011;38941;53.254;6.600;2023-12-20T07:35:52;12.80;;;2.72;;
51836;SDS011;38941;53.254;6.600;2023-12-20T07:37:53;14.27;;;3.53;;
51836;SDS011;38941;53.254;6.600;2023-12-20T07:39:55;16.25;;;2.55;;
51836;SDS011;38941;53.254;6.600;2023-12-20T07:41:55;22.45;;;3.33;;
51836;SDS011;38941;53.254;6.600;2023-12-20T07:43:56;18.45;;;3.30;;
51836;SDS011;38941;53.254;6.600;2023-12-20T07:45:57;12.35;;;2.40;;
51836;SDS011;38941;53.254;6.600;2023-12-20T07:48:03;22.02;;;2.53;;
51836;SDS011;38941;53.254;6.600;2023-12-20T07:50:05;16.17;;;2.65;;
51836;SDS011;38941;53.254;6.600;2023-12-20T07:52:06;20.95;;;2.80;;
51836;SDS011;38941;53.254;6.600;2023-12-20T07:54:09;21.60;;;4.57;;
51836;SDS011;38941;53.254;6.600;2023-12-20T07:56:16;26.05;;;3.30;;
51836;SDS011;38941;53.254;6.600;2023-12-20T07:58:17;20.05;;;3.25;;
51836;SDS011;38941;53.254;6.600;2023-12-20T08:00:18;19.05;;;2.38;;
51836;SDS011;38941;53.254;6.600;2023-12-20T08:02:20;18.52;;;2.75;;
51836;SDS011;38941;53.254;6.600;2023-12-20T08:04:21;15.10;;;2.95;;
51836;SDS011;38941;53.254;6.600;2023-12-20T08:06:21;20.80;;;2.65;;
51836;SDS011;38941;53.254;6.600;2023-12-20T08:08:22;13.07;;;2.45;;
51836;SDS011;38941;53.254;6.600;2023-12-20T08:10:24;19.08;;;2.60;;
51836;SDS011;38941;53.254;6.600;2023-12-20T08:12:25;22.73;;;2.40;;
51836;SDS011;38941;53.254;6.600;2023-12-20T08:14:27;21.50;;;2.97;;
51836;SDS011;38941;53.254;6.600;2023-12-20T08:16:28;21.00;;;2.63;;
51836;SDS011;38941;53.254;6.600;2023-12-20T08:18:29;19.88;;;2.38;;
51836;SDS011;38941;53.254;6.600;2023-12-20T08:20:29;14.82;;;2.30;;
51836;SDS011;38941;53.254;6.600;2023-12-20T08:22:31;14.40;;;2.78;;
51836;SDS011;38941;53.254;6.600;2023-12-20T08:24:33;16.50;;;2.83;;
51836;SDS011;38941;53.254;6.600;2023-12-20T08:26:34;22.75;;;3.00;;
51836;SDS011;38941;53.254;6.600;2023-12-20T08:28:36;21.00;;;3.15;;
51836;SDS011;38941;53.254;6.600;2023-12-20T08:30:37;15.60;;;2.17;;
51836;SDS011;38941;53.254;6.600;2023-12-20T08:32:37;15.88;;;3.65;;
51836;SDS011;38941;53.254;6.600;2023-12-20T08:34:38;9.75;;;1.50;;
51836;SDS011;38941;53.254;6.600;2023-12-20T08:36:39;1.08;;;0.30;;
51836;SDS011;38941;53.254;6.600;2023-12-20T08:38:39;5.28;;;0.70;;
51836;SDS011;38941;53.254;6.600;2023-12-20T08:40:40;4.53;;;0.55;;
51836;SDS011;38941;53.254;6.600;2023-12-20T08:42:41;7.72;;;0.60;;
51836;SDS011;38941;53.254;6.600;2023-12-20T08:44:43;9.80;;;0.75;;
51836;SDS011;38941;53.254;6.600;2023-12-20T08:46:43;8.18;;;0.60;;
51836;SDS011;38941;53.254;6.600;2023-12-20T08:48:44;8.38;;;1.40;;
51836;SDS011;38941;53.254;6.600;2023-12-20T08:50:45;4.80;;;0.77;;
51836;SDS011;38941;53.254;6.600;2023-12-20T08:52:48;13.57;;;2.70;;
51836;SDS011;38941;53.254;6.600;2023-12-20T08:54:49;4.90;;;0.82;;
51836;SDS011;38941;53.254;6.600;2023-12-20T08:56:52;10.85;;;1.23;;
51836;SDS011;38941;53.254;6.600;2023-12-20T08:58:53;3.70;;;0.50;;
51836;SDS011;38941;53.254;6.600;2023-12-20T09:00:55;7.15;;;0.70;;
51836;SDS011;38941;53.254;6.600;2023-12-20T09:02:57;5.03;;;0.52;;
51836;SDS011;38941;53.254;6.600;2023-12-20T09:04:58;2.92;;;0.70;;
51836;SDS011;38941;53.254;6.600;2023-12-20T09:06:59;4.80;;;0.98;;
51836;SDS011;38941;53.254;6.600;2023-12-20T09:09:01;16.17;;;0.88;;
51836;SDS011;38941;53.254;6.600;2023-12-20T09:11:02;6.57;;;1.25;;
51836;SDS011;38941;53.254;6.600;2023-12-20T09:13:03;10.05;;;0.73;;
51836;SDS011;38941;53.254;6.600;2023-12-20T09:15:04;3.40;;;0.70;;
51836;SDS011;38941;53.254;6.600;2023-12-20T09:17:05;7.90;;;1.25;;
51836;SDS011;38941;53.254;6.600;2023-12-20T09:19:08;7.57;;;0.77;;
51836;SDS011;38941;53.254;6.600;2023-12-20T09:21:09;15.38;;;1.17;;
51836;SDS011;38941;53.254;6.600;2023-12-20T09:23:10;6.10;;;1.23;;
51836;SDS011;38941;53.254;6.600;2023-12-20T09:25:10;15.23;;;1.35;;
51836;SDS011;38941;53.254;6.600;2023-12-20T09:27:12;7.65;;;1.83;;
51836;SDS011;38941;53.254;6.600;2023-12-20T09:29:13;9.65;;;1.30;;
51836;SDS011;38941;53.254;6.600;2023-12-20T09:31:15;4.70;;;1.77;;
51836;SDS011;38941;53.254;6.600;2023-12-20T09:33:16;6.85;;;1.23;;
51836;SDS011;38941;53.254;6.600;2023-12-20T09:35:17;5.45;;;0.73;;
51836;SDS011;38941;53.254;6.600;2023-12-20T09:37:18;5.72;;;1.30;;
51836;SDS011;38941;53.254;6.600;2023-12-20T09:39:19;9.05;;;0.95;;
51836;SDS011;38941;53.254;6.600;2023-12-20T09:41:22;4.53;;;0.75;;
51836;SDS011;38941;53.254;6.600;2023-12-20T09:43:26;6.28;;;1.00;;
51836;SDS011;38941;53.254;6.600;2023-12-20T09:45:30;4.65;;;0.52;;
51836;SDS011;38941;53.254;6.600;2023-12-20T09:47:31;5.55;;;0.80;;
51836;SDS011;38941;53.254;6.600;2023-12-20T09:49:32;9.38;;;0.80;;
51836;SDS011;38941;53.254;6.600;2023-12-20T09:51:33;10.25;;;0.88;;
51836;SDS011;38941;53.254;6.600;2023-12-20T09:53:35;4.30;;;0.70;;
51836;SDS011;38941;53.254;6.600;2023-12-20T09:55:38;6.05;;;1.45;;
51836;SDS011;38941;53.254;6.600;2023-12-20T09:57:41;3.05;;;1.05;;
51836;SDS011;38941;53.254;6.600;2023-12-20T09:59:42;10.65;;;0.93;;
51836;SDS011;38941;53.254;6.600;2023-12-20T10:01:43;2.50;;;0.68;;
51836;SDS011;38941;53.254;6.600;2023-12-20T10:03:43;5.80;;;1.23;;
51836;SDS011;38941;53.254;6.600;2023-12-20T10:05:44;6.00;;;0.75;;
51836;SDS011;38941;53.254;6.600;2023-12-20T10:07:47;9.77;;;1.38;;
51836;SDS011;38941;53.254;6.600;2023-12-20T10:09:48;5.00;;;0.43;;
51836;SDS011;38941;53.254;6.600;2023-12-20T10:11:49;5.07;;;0.90;;
51836;SDS011;38941;53.254;6.600;2023-12-20T10:13:58;13.55;;;1.20;;
51836;SDS011;38941;53.254;6.600;2023-12-20T10:16:02;7.32;;;1.13;;
51836;SDS011;38941;53.254;6.600;2023-12-20T10:18:03;5.35;;;0.98;;
51836;SDS011;38941;53.254;6.600;2023-12-20T10:20:05;6.72;;;1.40;;
51836;SDS011;38941;53.254;6.600;2023-12-20T10:22:10;12.35;;;1.60;;
51836;SDS011;38941;53.254;6.600;2023-12-20T10:24:16;6.63;;;0.75;;
51836;SDS011;38941;53.254;6.600;2023-12-20T10:26:24;6.60;;;0.98;;
51836;SDS011;38941;53.254;6.600;2023-12-20T10:28:26;7.00;;;1.15;;
51836;SDS011;38941;53.254;6.600;2023-12-20T10:30:29;6.15;;;1.25;;
51836;SDS011;38941;53.254;6.600;2023-12-20T10:32:30;7.85;;;1.35;;
51836;SDS011;38941;53.254;6.600;2023-12-20T10:34:32;11.45;;;1.33;;
51836;SDS011;38941;53.254;6.600;2023-12-20T10:36:33;9.73;;;1.23;;
51836;SDS011;38941;53.254;6.600;2023-12-20T10:38:35;7.90;;;1.38;;
51836;SDS011;38941;53.254;6.600;2023-12-20T10:40:38;12.65;;;1.50;;
51836;SDS011;38941;53.254;6.600;2023-12-20T10:42:39;7.70;;;1.80;;
51836;SDS011;38941;53.254;6.600;2023-12-20T10:44:41;10.30;;;1.48;;
51836;SDS011;38941;53.254;6.600;2023-12-20T10:46:42;9.23;;;1.70;;
51836;SDS011;38941;53.254;6.600;2023-12-20T10:48:49;15.63;;;1.80;;
51836;SDS011;38941;53.254;6.600;2023-12-20T10:50:54;6.25;;;1.45;;
51836;SDS011;38941;53.254;6.600;2023-12-20T10:52:56;18.83;;;1.88;;
51836;SDS011;38941;53.254;6.600;2023-12-20T10:55:01;11.23;;;1.60;;
51836;SDS011;38941;53.254;6.600;2023-12-20T10:57:02;9.68;;;1.80;;
51836;SDS011;38941;53.254;6.600;2023-12-20T10:59:06;8.85;;;1.60;;
51836;SDS011;38941;53.254;6.600;2023-12-20T11:01:12;10.13;;;1.45;;
51836;SDS011;38941;53.254;6.600;2023-12-20T11:03:14;7.32;;;0.93;;
51836;SDS011;38941;53.254;6.600;2023-12-20T11:07:39;14.55;;;2.20;;
51836;SDS011;38941;53.254;6.600;2023-12-20T11:10:10;8.25;;;1.30;;
51836;SDS011;38941;53.254;6.600;2023-12-20T11:14:47;7.30;;;1.80;;
51836;SDS011;38941;53.254;6.600;2023-12-20T11:17:08;8.77;;;1.67;;
51836;SDS011;38941;53.254;6.600;2023-12-20T11:19:11;17.42;;;2.60;;
51836;SDS011;38941;53.254;6.600;2023-12-20T11:21:13;11.35;;;1.33;;
51836;SDS011;38941;53.254;6.600;2023-12-20T11:23:15;14.27;;;3.70;;
51836;SDS011;38941;53.254;6.600;2023-12-20T11:25:16;11.18;;;2.88;;
51836;SDS011;38941;53.254;6.600;2023-12-20T11:27:18;14.93;;;3.00;;
51836;SDS011;38941;53.254;6.600;2023-12-20T11:29:32;12.43;;;1.77;;
51836;SDS011;38941;53.254;6.600;2023-12-20T11:31:39;15.35;;;1.50;;
51836;SDS011;38941;53.254;6.600;2023-12-20T11:33:41;17.98;;;2.10;;
51836;SDS011;38941;53.254;6.600;2023-12-20T11:35:42;11.98;;;2.30;;
51836;SDS011;38941;53.254;6.600;2023-12-20T11:37:43;15.13;;;1.55;;
51836;SDS011;38941;53.254;6.600;2023-12-20T11:39:43;17.20;;;2.70;;
51836;SDS011;38941;53.254;6.600;2023-12-20T11:41:44;8.95;;;1.27;;
51836;SDS011;38941;53.254;6.600;2023-12-20T11:43:45;16.85;;;2.28;;
51836;SDS011;38941;53.254;6.600;2023-12-20T11:45:49;17.23;;;2.35;;
51836;SDS011;38941;53.254;6.600;2023-12-20T11:47:51;17.55;;;2.50;;
51836;SDS011;38941;53.254;6.600;2023-12-20T11:49:54;9.65;;;1.77;;
51836;SDS011;38941;53.254;6.600;2023-12-20T11:51:56;11.38;;;1.48;;
51836;SDS011;38941;53.254;6.600;2023-12-20T11:53:57;16.05;;;2.17;;
51836;SDS011;38941;53.254;6.600;2023-12-20T11:55:57;11.20;;;1.77;;
51836;SDS011;38941;53.254;6.600;2023-12-20T11:57:58;16.25;;;2.50;;
51836;SDS011;38941;53.254;6.600;2023-12-20T12:00:00;21.20;;;3.17;;
51836;SDS011;38941;53.254;6.600;2023-12-20T12:02:01;9.60;;;1.67;;
51836;SDS011;38941;53.254;6.600;2023-12-20T12:04:06;14.93;;;2.33;;
51836;SDS011;38941;53.254;6.600;2023-12-20T12:06:07;16.15;;;1.98;;
51836;SDS011;38941;53.254;6.600;2023-12-20T12:08:07;10.32;;;1.30;;
51836;SDS011;38941;53.254;6.600;2023-12-20T12:10:08;16.52;;;2.88;;